Flight Track Log - Related Links

Times and Time Zones

All times are in EST time to prevent confusion due to time zone crossing. See the SWA875 flight status page for this flight to view local times or setup timezone preferences in your user account.

Time Position Orientation Groundspeed Altitude Reporting Facility
EST Latitude Longitude Course Direction KTS MPH feet Rate Location/Type
Sat 01:43:15 PM 40.7636 -112.0219 233° Southwest 179 206 6,500  Level Salt Lake Center
Sat 01:44:17 PM 40.7631 -112.1022 270° West 235 270 9,400 2,585 Climbing Salt Lake Center
Sat 01:45:18 PM 40.7936 -112.1950 294° West 273 314 11,800 2,459 Climbing Salt Lake Center
Sat 01:46:19 PM 40.8319 -112.3053 295° West 329 379 14,400 2,439 Climbing Salt Lake Center
Sat 01:47:21 PM 40.8672 -112.4231 292° West 343 395 16,800 2,585 Climbing Salt Lake Center
Sat 01:48:22 PM 40.8647 -112.5519 269° West 348 400 19,700 2,780 Climbing Salt Lake Center
Sat 01:49:24 PM 40.8525 -112.7092 264° West 359 413 22,500 2,390 Climbing Salt Lake Center
Sat 01:50:25 PM 40.8414 -112.8428 264° West 367 422 24,600 1,967 Climbing Salt Lake Center
Sat 01:51:26 PM 40.8433 -112.9817 271° West 376 433 26,500 1,512 Climbing Salt Lake Center
Sat 01:52:28 PM 40.8381 -113.1228 267° West 387 445 27,700 1,512 Climbing Salt Lake Center
Sat 01:53:29 PM 40.7817 -113.2464 239° Southwest 391 450 29,600 1,902 Climbing Salt Lake Center
Sat 01:54:31 PM 40.7317 -113.3672 241° Southwest 380 437 31,600 1,463 Climbing Salt Lake Center
Sat 01:55:32 PM 40.6775 -113.4881 239° Southwest 381 438 32,600 1,317 Climbing Salt Lake Center
Sat 01:56:34 PM 40.6244 -113.6117 241° Southwest 388 447 34,300 1,317 Climbing Salt Lake Center
Sat 01:57:35 PM 40.5708 -113.7319 240° Southwest 384 442 35,300 836 Climbing Salt Lake Center
Sat 01:58:36 PM 40.5086 -113.8781 241° Southwest 384 442 36,000 341 Climbing Salt Lake Center
Sat 01:59:38 PM 40.4550 -114.0019 240° Southwest 388 447 36,000  Level Salt Lake Center
Sat 02:00:39 PM 40.3997 -114.1244 239° Southwest 391 450 36,000  Level Salt Lake Center
Sat 02:01:41 PM 40.3469 -114.2475 241° Southwest 388 447 36,000  Level Salt Lake Center
Sat 02:02:42 PM 40.2931 -114.3675 240° Southwest 383 441 36,000  Level Salt Lake Center
Sat 02:03:44 PM 40.2383 -114.4883 239° Southwest 386 444 36,000  Level Salt Lake Center
Sat 02:04:45 PM 40.1850 -114.6072 240° Southwest 382 440 36,000  Level Salt Lake Center
Sat 02:05:47 PM 40.1333 -114.7261 240° Southwest 378 435 36,000  Level Salt Lake Center
Sat 02:06:48 PM 40.0731 -114.8608 240° Southwest 388 447 36,000 -49 Level Salt Lake Center
Sat 02:07:50 PM 40.0131 -114.9958 240° Southwest 386 444 35,900  Descending Salt Lake Center
Sat 02:08:51 PM 39.9594 -115.1119 239° Southwest 388 447 36,000 49 Climbing Salt Lake Center
Sat 02:09:53 PM 39.9061 -115.2283 239° Southwest 389 448 36,000  Level Salt Lake Center
Sat 02:10:54 PM 39.8439 -115.3636 239° Southwest 389 448 36,000 -49 Level Salt Lake Center
Sat 02:11:56 PM 39.7878 -115.4828 239° Southwest 399 459 35,900  Descending Salt Lake Center
Sat 02:12:57 PM 39.7250 -115.6178 239° Southwest 391 450 36,000 49 Climbing Salt Lake Center
Sat 02:13:59 PM 39.6719 -115.7325 239° Southwest 386 444 36,000  Level Salt Lake Center
Sat 02:15:00 PM 39.6197 -115.8447 239° Southwest 380 437 36,000  Level Salt Lake Center
Sat 02:16:02 PM 39.5589 -115.9758 239° Southwest 380 437 36,000 -48 Level Salt Lake Center
Sat 02:17:04 PM 39.5053 -116.0892 239° Southwest 383 441 35,900  Descending Salt Lake Center
Sat 02:18:05 PM 39.4431 -116.2208 239° Southwest 383 441 36,000 49 Climbing Salt Lake Center
Sat 02:19:07 PM 39.3911 -116.3339 239° Southwest 381 438 36,000 -49 Level Salt Lake Center
Sat 02:20:08 PM 39.3378 -116.4442 238° Southwest 377 434 35,900  Descending Salt Lake Center
Sat 02:21:10 PM 39.2761 -116.5728 238° Southwest 376 433 36,000 48 Climbing Salt Lake Center
Sat 02:22:12 PM 39.2239 -116.6828 239° Southwest 374 430 36,000  Level Salt Lake Center
Sat 02:23:13 PM 39.1622 -116.8133 239° Southwest 380 437 36,000 -49 Level Salt Lake Center
Sat 02:24:15 PM 39.1086 -116.9244 238° Southwest 379 436 35,900  Descending Salt Lake Center
Sat 02:25:17 PM 39.0511 -117.0414 238° Southwest 372 428 36,000 50 Climbing Salt Lake Center
Sat 02:26:15 PM 39.0064 -117.1361 239° Southwest 369 425 36,000  Level Oakland Center
Sat 02:27:17 PM 38.9408 -117.2711 238° Southwest 371 427 36,000  Level Oakland Center
Sat 02:28:18 PM 38.8872 -117.3800 238° Southwest 378 435 36,000  Level Oakland Center
Sat 02:29:19 PM 38.8322 -117.4919 238° Southwest 374 430 36,000 -49 Level Oakland Center
Sat 02:30:20 PM 38.7781 -117.6025 238° Southwest 368 423 35,900  Descending Oakland Center
Sat 02:31:21 PM 38.7236 -117.7119 238° Southwest 367 422 36,000 49 Climbing Oakland Center
Sat 02:32:22 PM 38.6667 -117.8289 238° Southwest 361 415 36,000  Level Oakland Center
Sat 02:33:23 PM 38.6150 -117.9339 238° Southwest 375 432 36,000  Level Oakland Center
Sat 02:34:25 PM 38.5497 -118.0667 238° Southwest 371 427 36,000  Level Oakland Center
Sat 02:35:26 PM 38.5083 -118.1692 243° Southwest 365 420 36,000  Level Oakland Center
Sat 02:36:27 PM 38.4600 -118.2819 241° Southwest 362 417 36,000  Level Oakland Center
Sat 02:37:28 PM 38.4114 -118.3967 242° Southwest 365 420 36,000  Level Oakland Center
Sat 02:38:29 PM 38.3636 -118.5094 242° Southwest 363 418 36,000  Level Oakland Center
Sat 02:39:30 PM 38.3158 -118.6225 242° Southwest 362 417 36,000 -393 Level Oakland Center
Sat 02:40:31 PM 38.2561 -118.7603 241° Southwest 367 422 35,200 -885 Descending Oakland Center
Sat 02:41:32 PM 38.2083 -118.8700 241° Southwest 358 412 34,200 -585 Descending Oakland Center
Sat 02:42:34 PM 38.1619 -118.9806 242° Southwest 355 409 34,000 -98 Descending Oakland Center
Sat 02:43:35 PM 38.1200 -119.0775 241° Southwest 355 409 34,000  Level Oakland Center
Sat 02:44:36 PM 38.0950 -119.1939 255° West 350 403 34,000  Level Oakland Center
Sat 02:45:37 PM 38.0794 -119.3056 260° West 329 379 34,000  Level Oakland Center
Sat 02:46:38 PM 38.0594 -119.4383 259° West 320 368 34,000  Level Oakland Center
Sat 02:47:39 PM 38.0414 -119.5467 258° West 316 364 34,000  Level Oakland Center
Sat 02:48:40 PM 38.0247 -119.6558 259° West 316 364 34,000  Level Oakland Center
Sat 02:49:42 PM 38.0075 -119.7650 259° West 316 364 34,000  Level Oakland Center
Sat 02:50:43 PM 37.9908 -119.8758 259° West 319 367 34,000  Level Oakland Center
Sat 02:51:44 PM 37.9731 -119.9844 258° West 316 364 34,000  Level Oakland Center
Sat 02:52:45 PM 37.9575 -120.0925 260° West 312 359 34,000 -49 Level Oakland Center
Sat 02:53:46 PM 37.9383 -120.1997 257° West 312 359 33,900 -1,171 Descending Oakland Center
Sat 02:54:48 PM 37.9225 -120.3081 260° West 313 360 31,600 -2,098 Descending Oakland Center
Sat 02:55:49 PM 37.9056 -120.4117 258° West 303 349 29,600 -1,967 Descending Oakland Center
Sat 02:56:50 PM 37.8903 -120.5111 259° West 291 335 27,600 -1,426 Descending Oakland Center
Sat 02:57:51 PM 37.8753 -120.6072 259° West 282 325 26,700 -1,033 Descending Oakland Center
Sat 02:58:52 PM 37.8611 -120.7317 262° West 297 342 25,500 -1,171 Descending Oakland Center
Sat 02:59:54 PM 37.8414 -120.8339 256° West 300 345 24,300 -1,561 Descending Oakland Center
Sat 03:00:55 PM 37.8206 -120.9325 255° West 292 336 22,300 -2,016 Descending Oakland Center
Sat 03:01:56 PM 37.7981 -121.0317 254° West 293 337 20,200 -2,066 Descending Oakland Center
Sat 03:02:57 PM 37.7747 -121.1331 254° West 297 342 18,100 -1,951 Descending Oakland Center
Sat 03:03:59 PM 37.7528 -121.2328 254° West 295 339 16,200 -1,854 Descending Oakland Center
Sat 03:05:00 PM 37.7319 -121.3244 254° West 277 319 14,300 -1,820 Descending Oakland Center
Sat 03:06:01 PM 37.7128 -121.4136 255° West 268 308 12,500 -1,918 Descending Oakland Center
Sat 03:07:02 PM 37.6914 -121.5053 254° West 257 296 10,400 -2,000 Descending Oakland Center
Sat 03:08:04 PM 37.6717 -121.5928 254° West 257 296 8,400 -1,659 Descending Oakland Center
Sat 03:09:05 PM 37.6522 -121.6797 254° West 258 297 7,000 -836 Descending Oakland Center
Sat 03:10:06 PM 37.6458 -121.7661 265° West 251 289 6,700 -689 Descending Oakland Center
Sat 03:11:07 PM 37.6400 -121.8469 265° West 238 274 5,600 -1,024 Descending Oakland Center
Sat 03:12:09 PM 37.6333 -121.9225 264° West 224 258 4,600 -976 Descending Oakland Center
Sat 03:13:10 PM 37.6278 -121.9956 265° West 214 246 3,600 -787 Descending Oakland Center
Sat 03:14:11 PM 37.6225 -122.0658 265° West 207 238 3,000 -857 Descending Oakland Center
Sat 03:15:09 PM 37.6500 -122.1333 297° West 166 191 1,900 -915 Descending Northern Cal TRACON
Sat 03:16:09 PM 37.6667 -122.1667 302° West 126 145 1,200 -700 Descending Northern Cal TRACON
Sat 03:17:09 PM 37.6833 -122.2000 302° West 117 135 500 -700 Descending Northern Cal TRACON
Sat 03:20:00 PM 37.7167 -122.2167 270° West  Level FlightAware Approximate

Login

Don't have an account? Register now (free) for customized features, flight alerts, and more!